sensor_id;sensor_type;location;lat;lon;timestamp;P1;durP1;ratioP1;P2;durP2;ratioP2
3995;SDS011;2012;49.794;9.722;2024-03-29T00:00:51;2.30;;;1.30;;
3995;SDS011;2012;49.794;9.722;2024-03-29T00:03:17;4.40;;;1.80;;
3995;SDS011;2012;49.794;9.722;2024-03-29T00:05:43;3.50;;;1.60;;
3995;SDS011;2012;49.794;9.722;2024-03-29T00:08:09;2.80;;;1.30;;
3995;SDS011;2012;49.794;9.722;2024-03-29T00:10:34;8.53;;;1.83;;
3995;SDS011;2012;49.794;9.722;2024-03-29T00:13:00;2.70;;;1.57;;
3995;SDS011;2012;49.794;9.722;2024-03-29T00:15:26;3.80;;;1.50;;
3995;SDS011;2012;49.794;9.722;2024-03-29T00:17:52;1.90;;;1.57;;
3995;SDS011;2012;49.794;9.722;2024-03-29T00:20:18;5.27;;;1.60;;
3995;SDS011;2012;49.794;9.722;2024-03-29T00:22:46;4.17;;;1.80;;
3995;SDS011;2012;49.794;9.722;2024-03-29T00:25:12;5.10;;;1.83;;
3995;SDS011;2012;49.794;9.722;2024-03-29T00:27:38;4.03;;;2.20;;
3995;SDS011;2012;49.794;9.722;2024-03-29T00:30:04;4.10;;;2.37;;
3995;SDS011;2012;49.794;9.722;2024-03-29T00:32:30;4.70;;;1.83;;
3995;SDS011;2012;49.794;9.722;2024-03-29T00:34:56;6.30;;;2.10;;
3995;SDS011;2012;49.794;9.722;2024-03-29T00:37:23;3.40;;;1.50;;
3995;SDS011;2012;49.794;9.722;2024-03-29T00:39:49;9.57;;;1.90;;
3995;SDS011;2012;49.794;9.722;2024-03-29T00:42:15;2.50;;;1.30;;
3995;SDS011;2012;49.794;9.722;2024-03-29T00:44:42;3.93;;;1.40;;
3995;SDS011;2012;49.794;9.722;2024-03-29T00:47:08;4.03;;;1.17;;
3995;SDS011;2012;49.794;9.722;2024-03-29T00:49:35;3.03;;;1.20;;
3995;SDS011;2012;49.794;9.722;2024-03-29T00:52:01;4.97;;;1.33;;
3995;SDS011;2012;49.794;9.722;2024-03-29T00:54:28;1.30;;;1.20;;
3995;SDS011;2012;49.794;9.722;2024-03-29T00:56:54;1.60;;;1.13;;
3995;SDS011;2012;49.794;9.722;2024-03-29T00:59:20;1.53;;;1.20;;
3995;SDS011;2012;49.794;9.722;2024-03-29T01:01:46;5.30;;;1.87;;
3995;SDS011;2012;49.794;9.722;2024-03-29T01:04:12;4.00;;;1.83;;
3995;SDS011;2012;49.794;9.722;2024-03-29T01:06:39;1.53;;;1.40;;
3995;SDS011;2012;49.794;9.722;2024-03-29T01:09:11;3.87;;;1.20;;
3995;SDS011;2012;49.794;9.722;2024-03-29T01:11:37;2.40;;;1.50;;
3995;SDS011;2012;49.794;9.722;2024-03-29T01:14:04;1.47;;;1.30;;
3995;SDS011;2012;49.794;9.722;2024-03-29T01:16:31;1.97;;;1.30;;
3995;SDS011;2012;49.794;9.722;2024-03-29T01:18:57;2.40;;;1.57;;
3995;SDS011;2012;49.794;9.722;2024-03-29T01:21:24;2.90;;;1.63;;
3995;SDS011;2012;49.794;9.722;2024-03-29T01:23:51;5.23;;;1.57;;
3995;SDS011;2012;49.794;9.722;2024-03-29T01:26:17;1.57;;;1.07;;
3995;SDS011;2012;49.794;9.722;2024-03-29T01:28:43;4.63;;;1.60;;
3995;SDS011;2012;49.794;9.722;2024-03-29T01:31:09;4.50;;;1.87;;
3995;SDS011;2012;49.794;9.722;2024-03-29T01:33:35;1.23;;;1.00;;
3995;SDS011;2012;49.794;9.722;2024-03-29T01:36:05;6.70;;;1.30;;
3995;SDS011;2012;49.794;9.722;2024-03-29T01:38:31;7.97;;;1.87;;
3995;SDS011;2012;49.794;9.722;2024-03-29T01:40:57;5.13;;;1.80;;
3995;SDS011;2012;49.794;9.722;2024-03-29T01:43:23;3.47;;;1.50;;
3995;SDS011;2012;49.794;9.722;2024-03-29T01:45:50;3.57;;;1.30;;
3995;SDS011;2012;49.794;9.722;2024-03-29T01:48:18;3.90;;;1.47;;
3995;SDS011;2012;49.794;9.722;2024-03-29T01:50:47;1.13;;;0.97;;
3995;SDS011;2012;49.794;9.722;2024-03-29T01:53:13;6.27;;;1.20;;
3995;SDS011;2012;49.794;9.722;2024-03-29T01:55:42;2.20;;;1.20;;
3995;SDS011;2012;49.794;9.722;2024-03-29T01:58:08;1.70;;;1.00;;
3995;SDS011;2012;49.794;9.722;2024-03-29T02:00:39;7.80;;;1.40;;
3995;SDS011;2012;49.794;9.722;2024-03-29T02:03:09;1.83;;;1.00;;
3995;SDS011;2012;49.794;9.722;2024-03-29T02:05:39;2.80;;;1.60;;
3995;SDS011;2012;49.794;9.722;2024-03-29T02:08:06;2.20;;;1.30;;
3995;SDS011;2012;49.794;9.722;2024-03-29T02:10:33;1.90;;;1.30;;
3995;SDS011;2012;49.794;9.722;2024-03-29T02:13:00;1.73;;;1.00;;
3995;SDS011;2012;49.794;9.722;2024-03-29T02:15:28;11.93;;;1.53;;
3995;SDS011;2012;49.794;9.722;2024-03-29T02:17:54;10.00;;;1.17;;
3995;SDS011;2012;49.794;9.722;2024-03-29T02:20:20;2.20;;;1.00;;
3995;SDS011;2012;49.794;9.722;2024-03-29T02:22:50;3.07;;;1.20;;
3995;SDS011;2012;49.794;9.722;2024-03-29T02:25:23;1.90;;;1.10;;
3995;SDS011;2012;49.794;9.722;2024-03-29T02:27:50;2.93;;;1.07;;
3995;SDS011;2012;49.794;9.722;2024-03-29T02:30:16;2.23;;;1.20;;
3995;SDS011;2012;49.794;9.722;2024-03-29T02:32:43;4.40;;;1.20;;
3995;SDS011;2012;49.794;9.722;2024-03-29T02:35:09;3.33;;;1.10;;
3995;SDS011;2012;49.794;9.722;2024-03-29T02:37:35;2.27;;;1.57;;
3995;SDS011;2012;49.794;9.722;2024-03-29T02:40:02;2.00;;;1.33;;
3995;SDS011;2012;49.794;9.722;2024-03-29T02:42:28;3.13;;;1.50;;
3995;SDS011;2012;49.794;9.722;2024-03-29T02:44:55;3.63;;;1.57;;
3995;SDS011;2012;49.794;9.722;2024-03-29T02:47:21;2.10;;;1.30;;
3995;SDS011;2012;49.794;9.722;2024-03-29T02:49:47;5.27;;;1.67;;
3995;SDS011;2012;49.794;9.722;2024-03-29T02:52:13;12.43;;;1.60;;
3995;SDS011;2012;49.794;9.722;2024-03-29T02:54:40;3.37;;;1.97;;
3995;SDS011;2012;49.794;9.722;2024-03-29T02:57:08;2.00;;;1.20;;
3995;SDS011;2012;49.794;9.722;2024-03-29T02:59:34;2.40;;;1.43;;
3995;SDS011;2012;49.794;9.722;2024-03-29T03:02:00;5.33;;;2.03;;
3995;SDS011;2012;49.794;9.722;2024-03-29T03:04:26;4.77;;;2.00;;
3995;SDS011;2012;49.794;9.722;2024-03-29T03:06:52;4.50;;;1.67;;
3995;SDS011;2012;49.794;9.722;2024-03-29T03:09:18;5.83;;;2.17;;
3995;SDS011;2012;49.794;9.722;2024-03-29T03:12:02;2.43;;;1.83;;
3995;SDS011;2012;49.794;9.722;2024-03-29T03:14:28;5.90;;;1.97;;
3995;SDS011;2012;49.794;9.722;2024-03-29T03:16:54;5.27;;;1.83;;
3995;SDS011;2012;49.794;9.722;2024-03-29T03:19:20;3.60;;;1.57;;
3995;SDS011;2012;49.794;9.722;2024-03-29T03:21:46;3.30;;;1.73;;
3995;SDS011;2012;49.794;9.722;2024-03-29T03:24:13;2.03;;;1.67;;
3995;SDS011;2012;49.794;9.722;2024-03-29T03:26:39;3.67;;;1.40;;
3995;SDS011;2012;49.794;9.722;2024-03-29T03:29:04;1.83;;;1.10;;
3995;SDS011;2012;49.794;9.722;2024-03-29T03:31:32;2.80;;;1.27;;
3995;SDS011;2012;49.794;9.722;2024-03-29T03:33:58;3.80;;;1.30;;
3995;SDS011;2012;49.794;9.722;2024-03-29T03:36:24;3.60;;;1.40;;
3995;SDS011;2012;49.794;9.722;2024-03-29T03:38:50;1.40;;;1.10;;
3995;SDS011;2012;49.794;9.722;2024-03-29T03:41:15;4.50;;;1.20;;
3995;SDS011;2012;49.794;9.722;2024-03-29T03:43:41;2.60;;;1.20;;
3995;SDS011;2012;49.794;9.722;2024-03-29T03:46:07;2.47;;;1.07;;
3995;SDS011;2012;49.794;9.722;2024-03-29T03:48:33;3.10;;;1.10;;
3995;SDS011;2012;49.794;9.722;2024-03-29T03:50:59;2.90;;;0.97;;
3995;SDS011;2012;49.794;9.722;2024-03-29T03:53:24;2.73;;;1.33;;
3995;SDS011;2012;49.794;9.722;2024-03-29T03:55:50;3.70;;;1.20;;
3995;SDS011;2012;49.794;9.722;2024-03-29T03:58:16;4.50;;;1.10;;
3995;SDS011;2012;49.794;9.722;2024-03-29T04:00:42;1.63;;;1.10;;
3995;SDS011;2012;49.794;9.722;2024-03-29T04:03:08;2.53;;;1.20;;
3995;SDS011;2012;49.794;9.722;2024-03-29T04:05:36;3.70;;;1.40;;
3995;SDS011;2012;49.794;9.722;2024-03-29T04:08:02;6.30;;;3.10;;
3995;SDS011;2012;49.794;9.722;2024-03-29T04:10:28;2.57;;;2.10;;
3995;SDS011;2012;49.794;9.722;2024-03-29T04:12:54;5.10;;;2.70;;
3995;SDS011;2012;49.794;9.722;2024-03-29T04:15:20;4.80;;;2.70;;
3995;SDS011;2012;49.794;9.722;2024-03-29T04:17:46;2.23;;;1.20;;
3995;SDS011;2012;49.794;9.722;2024-03-29T04:20:12;2.77;;;1.50;;
3995;SDS011;2012;49.794;9.722;2024-03-29T04:22:38;1.43;;;1.30;;
3995;SDS011;2012;49.794;9.722;2024-03-29T04:25:04;2.47;;;1.20;;
3995;SDS011;2012;49.794;9.722;2024-03-29T04:27:30;2.77;;;1.37;;
3995;SDS011;2012;49.794;9.722;2024-03-29T04:29:55;1.57;;;1.07;;
3995;SDS011;2012;49.794;9.722;2024-03-29T04:32:21;14.47;;;1.77;;
3995;SDS011;2012;49.794;9.722;2024-03-29T04:34:48;1.40;;;1.30;;
3995;SDS011;2012;49.794;9.722;2024-03-29T04:37:14;2.80;;;1.77;;
3995;SDS011;2012;49.794;9.722;2024-03-29T04:39:42;5.53;;;1.50;;
3995;SDS011;2012;49.794;9.722;2024-03-29T04:42:08;4.00;;;1.70;;
3995;SDS011;2012;49.794;9.722;2024-03-29T04:44:35;1.10;;;1.00;;
3995;SDS011;2012;49.794;9.722;2024-03-29T04:47:01;1.30;;;1.20;;
3995;SDS011;2012;49.794;9.722;2024-03-29T04:49:27;1.73;;;1.20;;
3995;SDS011;2012;49.794;9.722;2024-03-29T04:52:00;3.03;;;1.73;;
3995;SDS011;2012;49.794;9.722;2024-03-29T04:54:27;5.00;;;1.67;;
3995;SDS011;2012;49.794;9.722;2024-03-29T04:56:53;3.00;;;2.00;;
3995;SDS011;2012;49.794;9.722;2024-03-29T04:59:19;2.30;;;1.20;;
3995;SDS011;2012;49.794;9.722;2024-03-29T05:01:46;1.90;;;1.10;;
3995;SDS011;2012;49.794;9.722;2024-03-29T05:04:16;3.27;;;1.50;;
3995;SDS011;2012;49.794;9.722;2024-03-29T05:06:44;1.70;;;1.23;;
3995;SDS011;2012;49.794;9.722;2024-03-29T05:09:11;1.43;;;0.73;;
3995;SDS011;2012;49.794;9.722;2024-03-29T05:11:37;1.63;;;0.80;;
3995;SDS011;2012;49.794;9.722;2024-03-29T05:14:03;2.73;;;1.00;;
3995;SDS011;2012;49.794;9.722;2024-03-29T05:16:29;1.00;;;0.90;;
3995;SDS011;2012;49.794;9.722;2024-03-29T05:18:55;1.20;;;1.10;;
3995;SDS011;2012;49.794;9.722;2024-03-29T05:21:21;0.80;;;0.80;;
3995;SDS011;2012;49.794;9.722;2024-03-29T05:23:47;1.13;;;0.80;;
3995;SDS011;2012;49.794;9.722;2024-03-29T05:26:12;2.40;;;1.20;;
3995;SDS011;2012;49.794;9.722;2024-03-29T05:28:38;2.20;;;1.13;;
3995;SDS011;2012;49.794;9.722;2024-03-29T05:31:11;2.57;;;1.20;;
3995;SDS011;2012;49.794;9.722;2024-03-29T05:33:41;2.53;;;1.10;;
3995;SDS011;2012;49.794;9.722;2024-03-29T05:36:07;2.63;;;1.17;;
3995;SDS011;2012;49.794;9.722;2024-03-29T05:38:39;2.97;;;1.53;;
3995;SDS011;2012;49.794;9.722;2024-03-29T05:41:05;3.10;;;1.70;;
3995;SDS011;2012;49.794;9.722;2024-03-29T05:43:31;2.60;;;1.40;;
3995;SDS011;2012;49.794;9.722;2024-03-29T05:45:57;2.57;;;1.33;;
3995;SDS011;2012;49.794;9.722;2024-03-29T05:48:25;1.60;;;1.47;;
3995;SDS011;2012;49.794;9.722;2024-03-29T05:50:51;4.43;;;1.10;;
3995;SDS011;2012;49.794;9.722;2024-03-29T05:53:17;3.50;;;1.33;;
3995;SDS011;2012;49.794;9.722;2024-03-29T05:55:43;4.20;;;1.60;;
3995;SDS011;2012;49.794;9.722;2024-03-29T05:58:09;2.47;;;2.27;;
3995;SDS011;2012;49.794;9.722;2024-03-29T06:00:35;4.17;;;3.13;;
3995;SDS011;2012;49.794;9.722;2024-03-29T06:03:01;3.33;;;3.13;;
3995;SDS011;2012;49.794;9.722;2024-03-29T06:05:28;4.10;;;2.73;;
3995;SDS011;2012;49.794;9.722;2024-03-29T06:07:54;1.53;;;1.43;;
3995;SDS011;2012;49.794;9.722;2024-03-29T06:10:20;10.13;;;1.90;;
3995;SDS011;2012;49.794;9.722;2024-03-29T06:12:46;1.37;;;1.00;;
3995;SDS011;2012;49.794;9.722;2024-03-29T06:15:12;5.67;;;1.43;;
3995;SDS011;2012;49.794;9.722;2024-03-29T06:18:16;2.73;;;1.87;;
3995;SDS011;2012;49.794;9.722;2024-03-29T06:20:44;13.23;;;6.83;;
3995;SDS011;2012;49.794;9.722;2024-03-29T06:23:10;14.50;;;8.17;;
3995;SDS011;2012;49.794;9.722;2024-03-29T06:25:36;26.13;;;13.63;;
3995;SDS011;2012;49.794;9.722;2024-03-29T06:28:03;7.13;;;3.87;;
3995;SDS011;2012;49.794;9.722;2024-03-29T06:30:30;5.10;;;3.63;;
3995;SDS011;2012;49.794;9.722;2024-03-29T06:32:55;2.40;;;2.17;;
3995;SDS011;2012;49.794;9.722;2024-03-29T06:35:22;5.23;;;1.77;;
3995;SDS011;2012;49.794;9.722;2024-03-29T06:37:47;7.53;;;2.67;;
3995;SDS011;2012;49.794;9.722;2024-03-29T06:40:13;4.07;;;1.80;;
3995;SDS011;2012;49.794;9.722;2024-03-29T06:42:39;3.10;;;2.00;;
3995;SDS011;2012;49.794;9.722;2024-03-29T06:45:05;1.97;;;1.53;;
3995;SDS011;2012;49.794;9.722;2024-03-29T06:47:32;2.50;;;1.53;;
3995;SDS011;2012;49.794;9.722;2024-03-29T06:49:58;3.33;;;1.33;;
3995;SDS011;2012;49.794;9.722;2024-03-29T06:52:24;4.43;;;2.30;;
3995;SDS011;2012;49.794;9.722;2024-03-29T06:54:49;7.23;;;2.90;;
3995;SDS011;2012;49.794;9.722;2024-03-29T06:57:15;9.53;;;4.37;;
3995;SDS011;2012;49.794;9.722;2024-03-29T06:59:45;5.27;;;3.40;;
3995;SDS011;2012;49.794;9.722;2024-03-29T07:02:12;4.10;;;1.60;;
3995;SDS011;2012;49.794;9.722;2024-03-29T07:04:37;1.10;;;1.10;;
3995;SDS011;2012;49.794;9.722;2024-03-29T07:07:03;3.90;;;1.40;;
3995;SDS011;2012;49.794;9.722;2024-03-29T07:09:29;4.73;;;1.67;;
3995;SDS011;2012;49.794;9.722;2024-03-29T07:11:55;2.00;;;1.30;;
3995;SDS011;2012;49.794;9.722;2024-03-29T07:14:21;4.97;;;2.00;;
3995;SDS011;2012;49.794;9.722;2024-03-29T07:16:48;2.80;;;1.40;;
3995;SDS011;2012;49.794;9.722;2024-03-29T07:19:14;2.40;;;1.47;;
3995;SDS011;2012;49.794;9.722;2024-03-29T07:21:42;2.60;;;1.50;;
3995;SDS011;2012;49.794;9.722;2024-03-29T07:24:08;1.97;;;1.10;;
3995;SDS011;2012;49.794;9.722;2024-03-29T07:26:34;5.03;;;1.27;;
3995;SDS011;2012;49.794;9.722;2024-03-29T07:29:00;2.23;;;0.93;;
3995;SDS011;2012;49.794;9.722;2024-03-29T07:31:26;1.50;;;1.07;;
3995;SDS011;2012;49.794;9.722;2024-03-29T07:33:52;1.20;;;1.10;;
3995;SDS011;2012;49.794;9.722;2024-03-29T07:36:18;2.23;;;1.00;;
3995;SDS011;2012;49.794;9.722;2024-03-29T07:38:44;1.30;;;1.20;;
3995;SDS011;2012;49.794;9.722;2024-03-29T07:41:10;2.10;;;1.50;;
3995;SDS011;2012;49.794;9.722;2024-03-29T07:43:40;2.50;;;1.87;;
3995;SDS011;2012;49.794;9.722;2024-03-29T07:46:06;4.83;;;2.20;;
3995;SDS011;2012;49.794;9.722;2024-03-29T07:48:34;5.53;;;2.90;;
3995;SDS011;2012;49.794;9.722;2024-03-29T07:51:01;4.73;;;2.40;;
3995;SDS011;2012;49.794;9.722;2024-03-29T07:53:27;2.33;;;2.00;;
3995;SDS011;2012;49.794;9.722;2024-03-29T07:55:53;2.10;;;1.50;;
3995;SDS011;2012;49.794;9.722;2024-03-29T07:58:20;2.03;;;1.70;;
3995;SDS011;2012;49.794;9.722;2024-03-29T08:00:46;1.67;;;1.50;;
3995;SDS011;2012;49.794;9.722;2024-03-29T08:03:12;1.50;;;1.23;;
3995;SDS011;2012;49.794;9.722;2024-03-29T08:05:38;2.90;;;1.90;;
3995;SDS011;2012;49.794;9.722;2024-03-29T08:08:05;6.40;;;3.57;;
3995;SDS011;2012;49.794;9.722;2024-03-29T08:10:32;11.37;;;5.80;;
3995;SDS011;2012;49.794;9.722;2024-03-29T08:12:58;23.30;;;12.37;;
3995;SDS011;2012;49.794;9.722;2024-03-29T08:15:26;20.70;;;10.47;;
3995;SDS011;2012;49.794;9.722;2024-03-29T08:17:52;11.73;;;5.60;;
3995;SDS011;2012;49.794;9.722;2024-03-29T08:20:18;11.87;;;6.63;;
3995;SDS011;2012;49.794;9.722;2024-03-29T08:22:44;17.43;;;9.50;;
3995;SDS011;2012;49.794;9.722;2024-03-29T08:25:10;19.40;;;10.10;;
3995;SDS011;2012;49.794;9.722;2024-03-29T08:27:36;10.60;;;6.60;;
3995;SDS011;2012;49.794;9.722;2024-03-29T08:30:03;3.33;;;2.53;;
3995;SDS011;2012;49.794;9.722;2024-03-29T08:32:29;1.90;;;1.30;;
3995;SDS011;2012;49.794;9.722;2024-03-29T08:34:55;3.50;;;2.57;;
3995;SDS011;2012;49.794;9.722;2024-03-29T08:37:21;2.47;;;1.40;;
3995;SDS011;2012;49.794;9.722;2024-03-29T08:39:47;3.70;;;2.20;;
3995;SDS011;2012;49.794;9.722;2024-03-29T08:42:13;5.73;;;1.97;;
3995;SDS011;2012;49.794;9.722;2024-03-29T08:44:39;2.90;;;2.30;;
3995;SDS011;2012;49.794;9.722;2024-03-29T08:47:05;7.37;;;4.67;;
3995;SDS011;2012;49.794;9.722;2024-03-29T08:49:31;16.63;;;8.20;;
3995;SDS011;2012;49.794;9.722;2024-03-29T08:51:57;14.17;;;6.67;;
3995;SDS011;2012;49.794;9.722;2024-03-29T08:54:24;10.70;;;4.90;;
3995;SDS011;2012;49.794;9.722;2024-03-29T08:56:50;7.00;;;4.17;;
3995;SDS011;2012;49.794;9.722;2024-03-29T08:59:16;11.90;;;6.13;;
3995;SDS011;2012;49.794;9.722;2024-03-29T09:01:44;9.00;;;5.13;;
3995;SDS011;2012;49.794;9.722;2024-03-29T09:04:11;9.63;;;3.93;;
3995;SDS011;2012;49.794;9.722;2024-03-29T09:06:37;10.70;;;5.33;;
3995;SDS011;2012;49.794;9.722;2024-03-29T09:09:06;12.13;;;5.03;;
3995;SDS011;2012;49.794;9.722;2024-03-29T09:11:33;11.77;;;3.60;;
3995;SDS011;2012;49.794;9.722;2024-03-29T09:13:59;7.33;;;3.60;;
3995;SDS011;2012;49.794;9.722;2024-03-29T09:16:26;6.63;;;3.30;;
3995;SDS011;2012;49.794;9.722;2024-03-29T09:18:54;4.40;;;3.07;;
3995;SDS011;2012;49.794;9.722;2024-03-29T09:21:20;6.10;;;3.30;;
3995;SDS011;2012;49.794;9.722;2024-03-29T09:23:46;8.40;;;3.63;;
3995;SDS011;2012;49.794;9.722;2024-03-29T09:26:14;3.77;;;2.43;;
3995;SDS011;2012;49.794;9.722;2024-03-29T09:28:40;1.93;;;1.70;;
3995;SDS011;2012;49.794;9.722;2024-03-29T09:31:06;1.60;;;1.30;;
3995;SDS011;2012;49.794;9.722;2024-03-29T09:33:32;4.57;;;1.73;;
3995;SDS011;2012;49.794;9.722;2024-03-29T09:35:58;1.67;;;1.47;;
3995;SDS011;2012;49.794;9.722;2024-03-29T09:38:27;7.60;;;1.30;;
3995;SDS011;2012;49.794;9.722;2024-03-29T09:43:41;3.67;;;1.33;;
3995;SDS011;2012;49.794;9.722;2024-03-29T09:46:10;2.10;;;1.20;;
3995;SDS011;2012;49.794;9.722;2024-03-29T09:48:37;3.93;;;0.90;;
3995;SDS011;2012;49.794;9.722;2024-03-29T09:51:09;0.77;;;0.77;;
3995;SDS011;2012;49.794;9.722;2024-03-29T09:53:36;2.40;;;1.00;;
3995;SDS011;2012;49.794;9.722;2024-03-29T09:56:03;1.70;;;0.87;;
3995;SDS011;2012;49.794;9.722;2024-03-29T09:58:32;2.17;;;1.00;;
3995;SDS011;2012;49.794;9.722;2024-03-29T10:03:39;1.10;;;0.83;;
3995;SDS011;2012;49.794;9.722;2024-03-29T10:06:06;3.57;;;0.97;;
3995;SDS011;2012;49.794;9.722;2024-03-29T10:08:38;2.43;;;1.00;;
3995;SDS011;2012;49.794;9.722;2024-03-29T10:11:04;1.17;;;1.00;;
3995;SDS011;2012;49.794;9.722;2024-03-29T10:13:32;1.07;;;1.00;;
3995;SDS011;2012;49.794;9.722;2024-03-29T10:16:00;2.20;;;1.23;;
3995;SDS011;2012;49.794;9.722;2024-03-29T10:18:30;1.17;;;0.90;;
3995;SDS011;2012;49.794;9.722;2024-03-29T10:23:30;1.00;;;0.90;;
3995;SDS011;2012;49.794;9.722;2024-03-29T10:25:57;1.00;;;0.90;;
3995;SDS011;2012;49.794;9.722;2024-03-29T10:28:23;0.80;;;0.70;;
3995;SDS011;2012;49.794;9.722;2024-03-29T10:31:01;1.53;;;0.90;;
3995;SDS011;2012;49.794;9.722;2024-03-29T10:33:30;0.80;;;0.80;;
3995;SDS011;2012;49.794;9.722;2024-03-29T10:36:18;1.90;;;0.90;;
3995;SDS011;2012;49.794;9.722;2024-03-29T10:38:45;1.10;;;0.80;;
3995;SDS011;2012;49.794;9.722;2024-03-29T10:41:14;1.20;;;0.90;;
3995;SDS011;2012;49.794;9.722;2024-03-29T10:43:45;1.20;;;0.90;;
3995;SDS011;2012;49.794;9.722;2024-03-29T10:46:17;1.17;;;0.87;;
3995;SDS011;2012;49.794;9.722;2024-03-29T10:48:46;4.13;;;1.00;;
3995;SDS011;2012;49.794;9.722;2024-03-29T10:51:15;2.30;;;1.00;;
3995;SDS011;2012;49.794;9.722;2024-03-29T10:53:42;1.90;;;0.90;;
3995;SDS011;2012;49.794;9.722;2024-03-29T10:56:10;1.10;;;1.00;;
3995;SDS011;2012;49.794;9.722;2024-03-29T10:58:38;1.43;;;0.90;;
3995;SDS011;2012;49.794;9.722;2024-03-29T11:01:08;1.97;;;1.40;;
3995;SDS011;2012;49.794;9.722;2024-03-29T11:03:38;1.40;;;1.30;;
3995;SDS011;2012;49.794;9.722;2024-03-29T11:06:13;1.83;;;1.13;;
3995;SDS011;2012;49.794;9.722;2024-03-29T11:08:52;2.20;;;1.13;;
3995;SDS011;2012;49.794;9.722;2024-03-29T11:11:22;4.43;;;2.13;;
3995;SDS011;2012;49.794;9.722;2024-03-29T11:13:53;7.23;;;2.30;;
3995;SDS011;2012;49.794;9.722;2024-03-29T11:16:36;1.50;;;1.40;;
3995;SDS011;2012;49.794;9.722;2024-03-29T11:19:07;4.67;;;1.40;;
3995;SDS011;2012;49.794;9.722;2024-03-29T11:21:36;2.87;;;1.30;;
3995;SDS011;2012;49.794;9.722;2024-03-29T11:24:03;2.80;;;1.10;;
3995;SDS011;2012;49.794;9.722;2024-03-29T11:26:31;1.40;;;1.00;;
3995;SDS011;2012;49.794;9.722;2024-03-29T11:28:59;2.70;;;1.17;;
3995;SDS011;2012;49.794;9.722;2024-03-29T11:31:37;2.17;;;1.00;;
3995;SDS011;2012;49.794;9.722;2024-03-29T11:34:08;2.20;;;1.20;;
3995;SDS011;2012;49.794;9.722;2024-03-29T11:36:34;4.77;;;2.57;;
3995;SDS011;2012;49.794;9.722;2024-03-29T11:39:01;1.30;;;1.13;;
3995;SDS011;2012;49.794;9.722;2024-03-29T11:41:37;3.13;;;1.80;;
3995;SDS011;2012;49.794;9.722;2024-03-29T11:44:28;2.03;;;1.30;;
3995;SDS011;2012;49.794;9.722;2024-03-29T11:47:04;2.87;;;1.40;;
3995;SDS011;2012;49.794;9.722;2024-03-29T11:49:33;1.50;;;1.20;;
3995;SDS011;2012;49.794;9.722;2024-03-29T11:52:02;3.00;;;1.80;;
3995;SDS011;2012;49.794;9.722;2024-03-29T11:54:40;2.80;;;2.00;;
3995;SDS011;2012;49.794;9.722;2024-03-29T11:57:06;1.77;;;1.60;;
3995;SDS011;2012;49.794;9.722;2024-03-29T11:59:32;4.50;;;2.50;;
3995;SDS011;2012;49.794;9.722;2024-03-29T12:01:58;5.00;;;3.17;;
3995;SDS011;2012;49.794;9.722;2024-03-29T12:04:24;8.23;;;1.97;;
3995;SDS011;2012;49.794;9.722;2024-03-29T12:06:50;2.40;;;1.37;;
3995;SDS011;2012;49.794;9.722;2024-03-29T12:09:15;3.70;;;2.00;;
3995;SDS011;2012;49.794;9.722;2024-03-29T12:11:44;2.50;;;1.70;;
3995;SDS011;2012;49.794;9.722;2024-03-29T12:14:12;5.70;;;3.90;;
3995;SDS011;2012;49.794;9.722;2024-03-29T12:16:42;6.70;;;2.57;;
3995;SDS011;2012;49.794;9.722;2024-03-29T12:19:09;2.90;;;1.57;;
3995;SDS011;2012;49.794;9.722;2024-03-29T12:21:35;7.80;;;2.17;;
3995;SDS011;2012;49.794;9.722;2024-03-29T12:24:01;4.43;;;3.50;;
3995;SDS011;2012;49.794;9.722;2024-03-29T12:26:27;3.43;;;2.23;;
3995;SDS011;2012;49.794;9.722;2024-03-29T12:28:56;6.00;;;1.90;;
3995;SDS011;2012;49.794;9.722;2024-03-29T12:31:22;1.37;;;1.27;;
3995;SDS011;2012;49.794;9.722;2024-03-29T12:33:54;2.77;;;1.00;;
3995;SDS011;2012;49.794;9.722;2024-03-29T12:36:22;1.90;;;1.40;;
3995;SDS011;2012;49.794;9.722;2024-03-29T12:38:49;3.00;;;1.67;;
3995;SDS011;2012;49.794;9.722;2024-03-29T12:41:17;3.10;;;2.23;;
3995;SDS011;2012;49.794;9.722;2024-03-29T12:43:43;3.60;;;1.73;;
3995;SDS011;2012;49.794;9.722;2024-03-29T12:46:10;2.23;;;1.70;;
3995;SDS011;2012;49.794;9.722;2024-03-29T12:48:36;3.17;;;1.40;;
3995;SDS011;2012;49.794;9.722;2024-03-29T12:51:03;2.07;;;1.17;;
3995;SDS011;2012;49.794;9.722;2024-03-29T12:53:29;5.03;;;1.60;;
3995;SDS011;2012;49.794;9.722;2024-03-29T12:55:55;4.00;;;1.90;;
3995;SDS011;2012;49.794;9.722;2024-03-29T12:58:21;3.20;;;1.97;;
3995;SDS011;2012;49.794;9.722;2024-03-29T13:00:48;3.03;;;2.10;;
3995;SDS011;2012;49.794;9.722;2024-03-29T13:03:14;5.53;;;4.17;;
3995;SDS011;2012;49.794;9.722;2024-03-29T13:05:40;8.60;;;5.97;;
3995;SDS011;2012;49.794;9.722;2024-03-29T13:08:13;8.27;;;4.40;;
3995;SDS011;2012;49.794;9.722;2024-03-29T13:10:42;10.27;;;3.70;;
3995;SDS011;2012;49.794;9.722;2024-03-29T13:13:09;5.10;;;2.70;;
3995;SDS011;2012;49.794;9.722;2024-03-29T13:15:35;6.73;;;2.87;;
3995;SDS011;2012;49.794;9.722;2024-03-29T13:18:03;8.93;;;2.50;;
3995;SDS011;2012;49.794;9.722;2024-03-29T13:20:30;8.80;;;2.90;;
3995;SDS011;2012;49.794;9.722;2024-03-29T13:22:58;5.90;;;2.60;;
3995;SDS011;2012;49.794;9.722;2024-03-29T13:25:24;7.70;;;4.23;;
3995;SDS011;2012;49.794;9.722;2024-03-29T13:27:51;5.50;;;3.90;;
3995;SDS011;2012;49.794;9.722;2024-03-29T13:30:22;10.63;;;3.60;;
3995;SDS011;2012;49.794;9.722;2024-03-29T13:32:49;5.77;;;3.40;;
3995;SDS011;2012;49.794;9.722;2024-03-29T13:35:15;2.67;;;2.27;;
3995;SDS011;2012;49.794;9.722;2024-03-29T13:37:42;3.50;;;1.80;;
3995;SDS011;2012;49.794;9.722;2024-03-29T13:40:11;2.53;;;2.33;;
3995;SDS011;2012;49.794;9.722;2024-03-29T13:42:37;3.37;;;2.37;;
3995;SDS011;2012;49.794;9.722;2024-03-29T13:45:05;3.10;;;2.80;;
3995;SDS011;2012;49.794;9.722;2024-03-29T13:47:32;6.17;;;3.50;;
3995;SDS011;2012;49.794;9.722;2024-03-29T13:49:58;12.23;;;7.33;;
3995;SDS011;2012;49.794;9.722;2024-03-29T13:52:24;17.83;;;10.87;;
3995;SDS011;2012;49.794;9.722;2024-03-29T13:54:52;12.77;;;8.20;;
3995;SDS011;2012;49.794;9.722;2024-03-29T13:57:19;10.80;;;5.40;;
3995;SDS011;2012;49.794;9.722;2024-03-29T13:59:45;4.37;;;3.83;;
3995;SDS011;2012;49.794;9.722;2024-03-29T14:02:11;7.33;;;3.23;;
3995;SDS011;2012;49.794;9.722;2024-03-29T14:04:41;4.07;;;3.20;;
3995;SDS011;2012;49.794;9.722;2024-03-29T14:07:08;4.63;;;2.80;;
3995;SDS011;2012;49.794;9.722;2024-03-29T14:09:39;7.57;;;3.40;;
3995;SDS011;2012;49.794;9.722;2024-03-29T14:12:06;6.47;;;4.73;;
3995;SDS011;2012;49.794;9.722;2024-03-29T14:14:32;4.93;;;4.27;;
3995;SDS011;2012;49.794;9.722;2024-03-29T14:16:58;15.33;;;8.47;;
3995;SDS011;2012;49.794;9.722;2024-03-29T14:19:30;13.10;;;8.57;;
3995;SDS011;2012;49.794;9.722;2024-03-29T14:21:57;10.33;;;5.27;;
3995;SDS011;2012;49.794;9.722;2024-03-29T14:24:23;7.20;;;5.33;;
3995;SDS011;2012;49.794;9.722;2024-03-29T14:26:50;9.13;;;5.13;;
3995;SDS011;2012;49.794;9.722;2024-03-29T14:29:19;5.77;;;4.67;;
3995;SDS011;2012;49.794;9.722;2024-03-29T14:31:50;6.80;;;4.73;;
3995;SDS011;2012;49.794;9.722;2024-03-29T14:34:16;8.53;;;5.57;;
3995;SDS011;2012;49.794;9.722;2024-03-29T14:36:43;8.40;;;6.50;;
3995;SDS011;2012;49.794;9.722;2024-03-29T14:39:09;7.80;;;5.70;;
3995;SDS011;2012;49.794;9.722;2024-03-29T14:41:38;16.30;;;8.63;;
3995;SDS011;2012;49.794;9.722;2024-03-29T14:44:08;10.30;;;5.47;;
3995;SDS011;2012;49.794;9.722;2024-03-29T14:46:35;7.03;;;2.90;;
3995;SDS011;2012;49.794;9.722;2024-03-29T14:49:01;3.90;;;2.93;;
3995;SDS011;2012;49.794;9.722;2024-03-29T14:51:33;2.67;;;2.40;;
3995;SDS011;2012;49.794;9.722;2024-03-29T14:54:00;2.93;;;2.70;;
3995;SDS011;2012;49.794;9.722;2024-03-29T14:56:28;7.17;;;4.80;;
3995;SDS011;2012;49.794;9.722;2024-03-29T14:59:01;9.87;;;5.30;;
3995;SDS011;2012;49.794;9.722;2024-03-29T15:01:28;7.60;;;4.40;;
3995;SDS011;2012;49.794;9.722;2024-03-29T15:03:54;4.70;;;3.20;;
3995;SDS011;2012;49.794;9.722;2024-03-29T15:06:20;6.07;;;4.33;;
3995;SDS011;2012;49.794;9.722;2024-03-29T15:08:47;3.43;;;3.13;;
3995;SDS011;2012;49.794;9.722;2024-03-29T15:11:13;6.07;;;3.43;;
3995;SDS011;2012;49.794;9.722;2024-03-29T15:13:39;6.50;;;3.93;;
3995;SDS011;2012;49.794;9.722;2024-03-29T15:16:06;14.20;;;7.87;;
3995;SDS011;2012;49.794;9.722;2024-03-29T15:18:32;12.17;;;8.10;;
3995;SDS011;2012;49.794;9.722;2024-03-29T15:20:58;14.40;;;7.93;;
3995;SDS011;2012;49.794;9.722;2024-03-29T15:23:26;10.80;;;6.63;;